Time;durP1;ratioP1;P1;durP2;ratioP2;P2;SDS_P1;SDS_P2;PMS_P1;PMS_P2;Temp;Humidity;BMP_temperature;BMP_pressure;BME280_temperature;BME280_humidity;BME280_pressure;Samples;Min_cycle;Max_cycle;Signal;HPM_P1;HPM_P2
2021/10/07 00:02:24;;;;;;;;;;;11.70;99.90;;;;;;5055471;28;19984;-76
2021/10/07 00:04:51;;;;;;;;;;;11.60;99.90;;;;;;5069481;28;20007;-75
2021/10/07 00:07:18;;;;;;;;;;;11.60;99.90;;;;;;5056568;28;20023;-75
2021/10/07 00:09:46;;;;;;;;;;;11.60;99.90;;;;;;5056636;28;20079;-74
2021/10/07 00:12:12;;;;;;;;;;;11.60;99.90;;;;;;5059697;28;20268;-75
2021/10/07 00:14:39;;;;;;;;;;;11.50;99.90;;;;;;5066052;28;19924;-75
2021/10/07 00:17:06;;;;;;;;;;;11.50;99.90;;;;;;5072283;28;19979;-75
2021/10/07 00:19:33;;;;;;;;;;;11.40;99.90;;;;;;5063350;28;20019;-74
2021/10/07 00:21:59;;;;;;;;;;;11.40;99.90;;;;;;5056490;28;19931;-74
2021/10/07 00:24:26;;;;;;;;;;;11.40;99.90;;;;;;5053991;28;19933;-75
2021/10/07 00:26:54;;;;;;;;;;;11.40;99.90;;;;;;5070927;28;20020;-75
2021/10/07 00:29:39;;;;;;;;;;;11.40;99.90;;;;;;5055040;28;20596;-75
2021/10/07 00:32:08;;;;;;;;;;;11.40;99.90;;;;;;5060510;28;19925;-75
2021/10/07 00:37:25;;;;;;;;;;;11.30;99.90;;;;;;5071460;28;20334;-74
2021/10/07 00:39:51;;;;;;;;;;;11.30;99.90;;;;;;5060001;28;19932;-74
2021/10/07 00:42:20;;;;;;;;;;;11.20;99.90;;;;;;5064513;28;19924;-75
2021/10/07 00:44:46;;;;;;;;;;;11.20;99.90;;;;;;5059855;28;19942;-75
2021/10/07 00:47:14;;;;;;;;;;;11.20;99.90;;;;;;5061396;28;19924;-74
2021/10/07 00:49:41;;;;;;;;;;;11.10;99.90;;;;;;5055266;28;20356;-75
2021/10/07 00:52:08;;;;;;;;;;;11.10;99.90;;;;;;5058694;28;20375;-75
2021/10/07 00:54:35;;;;;;;;;;;11.00;99.90;;;;;;5070688;28;19960;-74
2021/10/07 00:57:03;;;;;;;;;;;11.00;99.90;;;;;;5072650;28;19935;-75
2021/10/07 00:59:33;;;;;;;;;;;11.00;99.90;;;;;;5055647;28;20023;-74
2021/10/07 01:02:03;;;;;;;;;;;10.90;99.90;;;;;;5055383;28;19978;-74
2021/10/07 01:04:30;;;;;;;;;;;10.90;99.90;;;;;;5054913;28;20602;-74
2021/10/07 01:06:56;;;;;;;;;;;10.80;99.90;;;;;;5061899;28;19931;-74
2021/10/07 01:09:23;;;;;;;;;;;10.80;99.90;;;;;;5057325;28;20451;-74
2021/10/07 01:11:50;;;;;;;;;;;10.80;99.90;;;;;;5054764;28;20008;-74
2021/10/07 01:17:12;;;;;;;;;;;10.70;99.90;;;;;;5124295;27;19920;-76
2021/10/07 01:19:41;;;;;;;;;;;10.70;99.90;;;;;;5120109;27;19923;-76
2021/10/07 01:22:08;;;;;;;;;;;10.70;99.90;;;;;;5102181;28;20387;-76
2021/10/07 01:24:34;;;;;;;;;;;10.60;99.90;;;;;;5102065;28;20385;-76
2021/10/07 01:27:02;;;;;;;;;;;10.70;99.90;;;;;;5101284;28;20011;-75
2021/10/07 01:29:28;;;;;;;;;;;10.60;99.90;;;;;;5104810;28;19932;-76
2021/10/07 01:31:55;;;;;;;;;;;10.60;99.90;;;;;;5096964;28;19924;-76
2021/10/07 01:34:22;;;;;;;;;;;10.60;99.90;;;;;;5100698;28;19924;-76
2021/10/07 01:36:50;;;;;;;;;;;10.60;99.90;;;;;;5107235;28;19931;-75
2021/10/07 01:39:18;;;;;;;;;;;10.50;99.90;;;;;;5106689;28;20015;-75
2021/10/07 01:41:44;;;;;;;;;;;10.50;99.90;;;;;;5108025;28;19924;-75
2021/10/07 01:44:11;;;;;;;;;;;10.40;99.90;;;;;;5106744;28;19955;-75
2021/10/07 01:46:40;;;;;;;;;;;10.40;99.90;;;;;;5105618;28;20835;-75
2021/10/07 01:49:07;;;;;;;;;;;10.30;99.90;;;;;;5103648;28;19970;-76
2021/10/07 01:51:34;;;;;;;;;;;10.20;99.90;;;;;;5104578;28;19925;-76
2021/10/07 01:54:02;;;;;;;;;;;10.20;99.90;;;;;;5103316;28;20545;-76
2021/10/07 01:56:29;;;;;;;;;;;10.20;99.90;;;;;;5100684;28;19925;-75
2021/10/07 01:58:55;;;;;;;;;;;10.20;99.90;;;;;;5087435;28;20437;-76
2021/10/07 02:01:22;;;;;;;;;;;10.10;99.90;;;;;;5111056;28;19966;-76
2021/10/07 02:03:49;;;;;;;;;;;10.10;99.90;;;;;;5108429;28;19924;-76
2021/10/07 02:06:16;;;;;;;;;;;10.10;99.90;;;;;;5109689;28;19924;-75
2021/10/07 02:08:42;;;;;;;;;;;10.00;99.90;;;;;;5108427;28;20410;-75
2021/10/07 02:11:10;;;;;;;;;;;10.00;99.90;;;;;;5089713;28;20446;-75
2021/10/07 02:13:37;;;;;;;;;;;10.00;99.90;;;;;;5103886;28;20305;-75
2021/10/07 02:16:04;;;;;;;;;;;10.00;99.90;;;;;;5118508;27;19934;-75
2021/10/07 02:18:31;;;;;;;;;;;10.00;99.90;;;;;;5125467;27;19924;-75
2021/10/07 02:20:59;;;;;;;;;;;10.00;99.90;;;;;;5111843;27;19931;-75
2021/10/07 02:23:25;;;;;;;;;;;10.00;99.90;;;;;;5123116;27;20019;-76
2021/10/07 02:25:52;;;;;;;;;;;10.00;99.90;;;;;;5114136;27;19924;-75
2021/10/07 02:28:20;;;;;;;;;;;9.90;99.90;;;;;;5116687;27;19931;-75
2021/10/07 02:30:47;;;;;;;;;;;9.90;99.90;;;;;;5098809;28;20306;-75
2021/10/07 02:33:13;;;;;;;;;;;9.80;99.90;;;;;;5102313;27;20035;-74
2021/10/07 02:35:41;;;;;;;;;;;9.80;99.90;;;;;;5113603;27;19923;-75
2021/10/07 02:38:07;;;;;;;;;;;9.80;99.90;;;;;;5108330;27;20321;-75
2021/10/07 02:40:34;;;;;;;;;;;9.70;99.90;;;;;;5108142;27;20014;-75
2021/10/07 02:43:01;;;;;;;;;;;9.70;99.90;;;;;;5114789;27;19924;-74
2021/10/07 02:45:29;;;;;;;;;;;9.70;99.90;;;;;;5113443;27;19942;-75
2021/10/07 02:47:56;;;;;;;;;;;9.60;99.90;;;;;;5115426;27;19939;-74
2021/10/07 02:50:23;;;;;;;;;;;9.60;99.90;;;;;;5099684;28;19931;-74
2021/10/07 02:52:50;;;;;;;;;;;9.50;99.90;;;;;;5101001;27;19985;-75
2021/10/07 02:55:17;;;;;;;;;;;9.50;99.90;;;;;;5110494;27;19923;-75
2021/10/07 02:57:45;;;;;;;;;;;9.50;99.90;;;;;;5114409;27;19953;-75
2021/10/07 03:00:12;;;;;;;;;;;9.50;99.90;;;;;;5106369;27;19977;-75
2021/10/07 03:02:40;;;;;;;;;;;9.50;99.90;;;;;;5131120;27;19955;-75
2021/10/07 03:05:07;;;;;;;;;;;9.50;99.90;;;;;;5110817;27;20014;-75
2021/10/07 03:07:34;;;;;;;;;;;9.40;99.90;;;;;;5135099;27;19927;-75
2021/10/07 03:10:01;;;;;;;;;;;9.40;99.90;;;;;;5120240;27;20018;-75
2021/10/07 03:12:28;;;;;;;;;;;9.40;99.90;;;;;;5099754;27;20490;-74
2021/10/07 03:14:54;;;;;;;;;;;9.40;99.90;;;;;;5104690;27;20398;-75
2021/10/07 03:17:21;;;;;;;;;;;9.40;99.90;;;;;;5095913;27;19934;-75
2021/10/07 03:19:49;;;;;;;;;;;9.30;99.90;;;;;;5099962;28;20019;-75
2021/10/07 03:22:16;;;;;;;;;;;9.30;99.90;;;;;;5116814;27;20301;-74
2021/10/07 03:24:43;;;;;;;;;;;9.30;99.90;;;;;;5098908;28;19923;-74
2021/10/07 03:27:10;;;;;;;;;;;9.30;99.90;;;;;;5121631;27;20286;-74
2021/10/07 03:29:36;;;;;;;;;;;9.30;99.90;;;;;;5112126;27;20019;-74
2021/10/07 03:32:03;;;;;;;;;;;9.30;99.90;;;;;;5108347;27;20002;-76
2021/10/07 03:34:30;;;;;;;;;;;9.20;99.90;;;;;;5102095;27;19923;-75
2021/10/07 03:36:58;;;;;;;;;;;9.10;99.90;;;;;;5107280;27;19971;-75
2021/10/07 03:39:25;;;;;;;;;;;9.10;99.90;;;;;;5111458;28;19928;-74
2021/10/07 03:41:51;;;;;;;;;;;9.00;99.90;;;;;;5106347;27;22045;-75
2021/10/07 03:44:18;;;;;;;;;;;9.10;99.90;;;;;;5111953;28;20409;-75
2021/10/07 03:46:45;;;;;;;;;;;9.10;99.90;;;;;;5115476;27;19963;-75
2021/10/07 03:49:11;;;;;;;;;;;9.10;99.90;;;;;;5095278;27;19943;-75
2021/10/07 03:51:38;;;;;;;;;;;9.00;99.90;;;;;;5120351;27;19923;-75
2021/10/07 03:54:06;;;;;;;;;;;9.00;99.90;;;;;;5110672;27;20353;-75
2021/10/07 03:56:33;;;;;;;;;;;9.00;99.90;;;;;;5111488;27;20019;-74
2021/10/07 03:58:59;;;;;;;;;;;9.00;99.90;;;;;;5105074;27;19924;-74
2021/10/07 04:01:26;;;;;;;;;;;8.90;99.90;;;;;;5104586;27;20289;-75
2021/10/07 04:03:53;;;;;;;;;;;8.90;99.90;;;;;;5093195;28;20347;-75
2021/10/07 04:06:19;;;;;;;;;;;8.80;99.90;;;;;;5104684;27;20375;-74
2021/10/07 04:08:46;;;;;;;;;;;8.80;99.90;;;;;;5097129;27;19955;-74
2021/10/07 04:11:14;;;;;;;;;;;8.80;99.90;;;;;;5110962;28;20014;-74
2021/10/07 04:13:41;;;;;;;;;;;8.80;99.90;;;;;;5105444;27;20026;-73
2021/10/07 04:16:07;;;;;;;;;;;8.70;99.90;;;;;;5098128;28;19958;-73
2021/10/07 04:18:34;;;;;;;;;;;8.80;99.90;;;;;;5118490;27;20379;-73
2021/10/07 04:21:01;;;;;;;;;;;8.80;99.90;;;;;;5105512;27;20274;-73
2021/10/07 04:23:27;;;;;;;;;;;8.80;99.90;;;;;;5096567;27;20376;-73
2021/10/07 04:25:54;;;;;;;;;;;8.90;99.90;;;;;;5111027;28;19977;-73
2021/10/07 04:28:22;;;;;;;;;;;8.80;99.90;;;;;;5109750;28;20006;-73
2021/10/07 04:30:49;;;;;;;;;;;8.90;99.90;;;;;;5114957;27;19924;-74
2021/10/07 04:33:15;;;;;;;;;;;8.80;99.90;;;;;;5112404;28;20019;-73
2021/10/07 04:35:42;;;;;;;;;;;8.80;99.90;;;;;;5097239;28;19924;-73
2021/10/07 04:38:09;;;;;;;;;;;8.80;99.90;;;;;;5096040;28;19928;-73
2021/10/07 04:40:36;;;;;;;;;;;8.80;99.90;;;;;;5110427;28;20361;-73
2021/10/07 04:43:03;;;;;;;;;;;8.80;99.90;;;;;;5112109;28;20401;-73
2021/10/07 04:45:31;;;;;;;;;;;8.70;99.90;;;;;;5104613;27;20006;-73
2021/10/07 04:47:58;;;;;;;;;;;8.70;99.90;;;;;;5109466;27;19937;-72
2021/10/07 04:50:24;;;;;;;;;;;8.70;99.90;;;;;;5099717;28;20023;-73
2021/10/07 04:52:51;;;;;;;;;;;8.70;99.90;;;;;;5100562;28;19930;-73
2021/10/07 04:55:18;;;;;;;;;;;8.80;99.90;;;;;;5110127;27;20014;-74
2021/10/07 04:57:44;;;;;;;;;;;8.70;99.90;;;;;;5112388;28;20394;-74
2021/10/07 05:00:11;;;;;;;;;;;8.70;99.90;;;;;;5109671;27;19959;-73
2021/10/07 05:02:40;;;;;;;;;;;8.80;99.90;;;;;;5132499;27;20429;-73
2021/10/07 05:05:08;;;;;;;;;;;8.60;99.90;;;;;;5104337;27;19982;-73
2021/10/07 05:07:35;;;;;;;;;;;8.60;99.90;;;;;;5111160;28;20006;-73
2021/10/07 05:10:01;;;;;;;;;;;8.50;99.90;;;;;;5105360;27;20331;-73
2021/10/07 05:12:28;;;;;;;;;;;8.50;99.90;;;;;;5107859;28;19982;-73
2021/10/07 05:14:55;;;;;;;;;;;8.50;99.90;;;;;;5106044;28;19924;-73
2021/10/07 05:17:21;;;;;;;;;;;8.50;99.90;;;;;;5101742;28;20023;-73
2021/10/07 05:19:49;;;;;;;;;;;8.50;99.90;;;;;;5103644;28;19924;-74
2021/10/07 05:22:16;;;;;;;;;;;8.50;99.90;;;;;;5098888;28;20008;-75
2021/10/07 05:24:43;;;;;;;;;;;8.40;99.90;;;;;;5087387;28;20006;-75
2021/10/07 05:27:09;;;;;;;;;;;8.40;99.90;;;;;;5108830;28;20393;-75
2021/10/07 05:29:36;;;;;;;;;;;8.50;99.90;;;;;;5105048;28;20425;-76
2021/10/07 05:32:03;;;;;;;;;;;8.40;99.90;;;;;;5093863;28;19967;-75
2021/10/07 05:34:30;;;;;;;;;;;8.40;99.90;;;;;;5091299;28;20473;-75
2021/10/07 05:36:58;;;;;;;;;;;8.50;99.90;;;;;;5089941;28;19932;-76
2021/10/07 05:39:25;;;;;;;;;;;8.50;99.90;;;;;;5092298;28;19959;-75
2021/10/07 05:41:52;;;;;;;;;;;8.50;99.90;;;;;;5098298;28;20400;-75
2021/10/07 05:44:18;;;;;;;;;;;8.50;99.90;;;;;;5094995;28;20010;-76
2021/10/07 05:46:45;;;;;;;;;;;8.40;99.90;;;;;;5090157;28;20019;-76
2021/10/07 05:49:13;;;;;;;;;;;8.40;99.90;;;;;;5092918;28;20583;-75
2021/10/07 05:51:41;;;;;;;;;;;8.40;99.90;;;;;;5098778;28;20370;-75
2021/10/07 05:54:09;;;;;;;;;;;8.40;99.90;;;;;;5099298;28;19924;-77
2021/10/07 05:56:36;;;;;;;;;;;8.50;99.90;;;;;;5105119;28;19930;-74
2021/10/07 05:59:02;;;;;;;;;;;8.50;99.90;;;;;;5089128;28;20398;-75
2021/10/07 06:01:29;;;;;;;;;;;8.40;99.90;;;;;;5096865;28;19924;-76
2021/10/07 06:03:56;;;;;;;;;;;8.50;99.90;;;;;;5101386;28;20382;-76
2021/10/07 06:06:23;;;;;;;;;;;8.50;99.90;;;;;;5103669;27;20576;-76
2021/10/07 06:08:49;;;;;;;;;;;8.50;99.90;;;;;;5100033;27;19930;-76
2021/10/07 06:11:17;;;;;;;;;;;8.50;99.90;;;;;;5103534;27;19966;-75
2021/10/07 06:13:44;;;;;;;;;;;8.50;99.90;;;;;;5109116;28;20006;-75
2021/10/07 06:16:11;;;;;;;;;;;8.50;99.90;;;;;;5112735;27;20035;-76
2021/10/07 06:18:40;;;;;;;;;;;8.50;99.90;;;;;;5114550;27;19934;-76
2021/10/07 06:21:07;;;;;;;;;;;8.50;99.90;;;;;;5110291;27;19939;-76
2021/10/07 06:23:36;;;;;;;;;;;8.50;99.90;;;;;;5095730;28;20003;-76
2021/10/07 06:26:02;;;;;;;;;;;8.50;99.90;;;;;;5113744;27;19924;-76
2021/10/07 06:28:31;;;;;;;;;;;8.60;99.90;;;;;;5113410;28;19924;-77
2021/10/07 06:30:57;;;;;;;;;;;8.60;99.90;;;;;;5101469;27;19962;-76
2021/10/07 06:33:24;;;;;;;;;;;8.80;99.90;;;;;;5113785;27;19971;-76
2021/10/07 06:35:52;;;;;;;;;;;8.80;99.90;;;;;;5099094;28;20010;-76
2021/10/07 06:38:18;;;;;;;;;;;8.80;99.90;;;;;;5109573;28;19931;-76
2021/10/07 06:40:45;;;;;;;;;;;8.80;99.90;;;;;;5111491;28;19924;-76
2021/10/07 06:43:12;;;;;;;;;;;8.80;99.90;;;;;;5114773;27;19924;-76
2021/10/07 06:45:40;;;;;;;;;;;8.90;99.90;;;;;;5108526;28;19969;-76
2021/10/07 06:48:07;;;;;;;;;;;9.00;99.90;;;;;;5112087;27;20295;-75
2021/10/07 06:50:34;;;;;;;;;;;9.00;99.90;;;;;;5100895;27;19974;-75
2021/10/07 06:53:02;;;;;;;;;;;9.00;99.90;;;;;;5107447;27;20394;-75
2021/10/07 06:55:29;;;;;;;;;;;9.00;99.90;;;;;;5101157;28;20002;-76
2021/10/07 06:57:55;;;;;;;;;;;9.10;99.90;;;;;;5109408;27;20408;-75
2021/10/07 07:00:22;;;;;;;;;;;9.20;99.90;;;;;;5112852;27;19978;-76
2021/10/07 07:02:52;;;;;;;;;;;9.20;99.90;;;;;;5108430;28;19930;-75
2021/10/07 07:05:18;;;;;;;;;;;9.30;99.90;;;;;;5105607;27;19923;-76
2021/10/07 07:07:45;;;;;;;;;;;9.40;99.90;;;;;;5108871;27;20014;-76
2021/10/07 07:10:17;;;;;;;;;;;9.50;99.90;;;;;;5111011;28;19923;-76
2021/10/07 07:12:44;;;;;;;;;;;9.60;99.90;;;;;;5096189;27;20076;-75
2021/10/07 07:15:10;;;;;;;;;;;9.70;99.90;;;;;;5107767;27;19924;-76
2021/10/07 07:17:37;;;;;;;;;;;9.80;99.90;;;;;;5112212;27;19924;-75
2021/10/07 07:20:06;;;;;;;;;;;9.80;99.90;;;;;;5101759;28;20010;-76
2021/10/07 07:22:33;;;;;;;;;;;9.90;99.90;;;;;;5101059;27;20007;-74
2021/10/07 07:24:59;;;;;;;;;;;10.00;99.90;;;;;;5103656;28;20011;-74
2021/10/07 07:27:26;;;;;;;;;;;10.20;99.90;;;;;;5116929;27;19963;-75
2021/10/07 07:29:53;;;;;;;;;;;10.20;99.90;;;;;;5111408;28;20014;-74
2021/10/07 07:32:20;;;;;;;;;;;10.30;99.90;;;;;;5105381;27;20014;-73
2021/10/07 07:34:46;;;;;;;;;;;10.40;99.90;;;;;;5100982;27;20360;-75
2021/10/07 07:37:15;;;;;;;;;;;10.60;99.90;;;;;;5114722;27;19967;-75
2021/10/07 07:39:42;;;;;;;;;;;10.80;99.90;;;;;;5122577;27;19927;-74
2021/10/07 07:42:08;;;;;;;;;;;12.20;99.90;;;;;;5104805;27;20309;-75
2021/10/07 07:44:36;;;;;;;;;;;13.00;99.90;;;;;;5092927;28;20408;-75
2021/10/07 07:47:03;;;;;;;;;;;14.40;99.90;;;;;;5091910;27;19924;-74
2021/10/07 07:49:29;;;;;;;;;;;15.60;99.90;;;;;;5095600;28;20465;-75
2021/10/07 07:51:56;;;;;;;;;;;16.40;99.90;;;;;;5102541;28;20838;-75
2021/10/07 07:54:24;;;;;;;;;;;16.30;99.90;;;;;;5094702;28;19924;-75
2021/10/07 07:56:51;;;;;;;;;;;17.40;99.90;;;;;;5111185;27;20404;-76
2021/10/07 07:59:18;;;;;;;;;;;19.00;99.90;;;;;;5109736;28;19950;-76
2021/10/07 08:01:44;;;;;;;;;;;20.40;99.90;;;;;;5102683;27;19924;-76
2021/10/07 08:04:11;;;;;;;;;;;20.70;97.10;;;;;;5095662;28;19923;-74
2021/10/07 08:06:38;;;;;;;;;;;20.80;96.20;;;;;;5115597;27;19924;-74
2021/10/07 08:09:05;;;;;;;;;;;21.30;93.30;;;;;;5122816;27;19930;-75
2021/10/07 08:11:37;;;;;;;;;;;21.40;92.30;;;;;;5103622;27;19931;-74
2021/10/07 08:14:03;;;;;;;;;;;21.80;92.20;;;;;;5110486;27;19968;-75
2021/10/07 08:16:31;;;;;;;;;;;22.30;91.00;;;;;;5107606;28;19938;-74
2021/10/07 08:18:58;;;;;;;;;;;22.40;86.00;;;;;;5112433;27;20019;-74
2021/10/07 08:21:25;;;;;;;;;;;22.30;86.50;;;;;;5110547;27;20018;-75
2021/10/07 08:23:53;;;;;;;;;;;21.60;84.90;;;;;;5109690;27;19977;-75
2021/10/07 08:26:20;;;;;;;;;;;21.20;90.30;;;;;;5101859;27;20026;-75
2021/10/07 08:28:48;;;;;;;;;;;22.10;88.80;;;;;;5109509;27;20353;-75
2021/10/07 08:31:15;;;;;;;;;;;22.80;84.70;;;;;;5111192;27;19953;-75
2021/10/07 08:33:41;;;;;;;;;;;22.60;82.40;;;;;;5114163;27;20022;-75
2021/10/07 08:36:08;;;;;;;;;;;22.60;81.80;;;;;;5111713;27;19932;-75
2021/10/07 08:38:35;;;;;;;;;;;22.60;81.20;;;;;;5109020;28;20026;-75
2021/10/07 08:41:02;;;;;;;;;;;22.60;81.40;;;;;;5101326;28;20375;-75
2021/10/07 08:43:28;;;;;;;;;;;22.30;82.80;;;;;;5111023;27;19927;-77
2021/10/07 08:45:56;;;;;;;;;;;22.00;81.50;;;;;;5108497;28;20474;-76
2021/10/07 08:48:23;;;;;;;;;;;20.20;84.90;;;;;;5102731;28;20510;-76
2021/10/07 08:50:50;;;;;;;;;;;18.70;92.60;;;;;;5095749;28;19946;-75
2021/10/07 08:53:17;;;;;;;;;;;17.60;99.90;;;;;;5108162;28;20365;-76
2021/10/07 08:55:43;;;;;;;;;;;17.00;99.90;;;;;;5104811;28;19930;-75
2021/10/07 08:58:11;;;;;;;;;;;16.50;99.90;;;;;;5100101;27;19924;-76
2021/10/07 09:00:38;;;;;;;;;;;16.50;99.90;;;;;;5102212;28;20014;-75
2021/10/07 09:03:19;;;;;;;;;;;16.70;99.90;;;;;;5107521;28;19924;-74
2021/10/07 09:05:46;;;;;;;;;;;16.70;99.90;;;;;;5110137;28;19928;-75
2021/10/07 09:08:14;;;;;;;;;;;16.60;99.90;;;;;;5097087;27;19993;-76
2021/10/07 09:10:43;;;;;;;;;;;16.30;99.90;;;;;;5105136;28;20018;-75
2021/10/07 09:13:11;;;;;;;;;;;16.20;99.90;;;;;;5100484;28;19939;-76
2021/10/07 09:15:41;;;;;;;;;;;16.20;99.90;;;;;;5106133;28;19924;-76
2021/10/07 09:18:08;;;;;;;;;;;16.30;99.90;;;;;;5102360;28;20180;-76
2021/10/07 09:20:37;;;;;;;;;;;16.30;99.90;;;;;;5106649;28;20007;-75
2021/10/07 09:23:04;;;;;;;;;;;16.30;99.90;;;;;;5112470;28;19932;-76
2021/10/07 09:25:31;;;;;;;;;;;16.20;99.90;;;;;;5107551;28;19924;-74
2021/10/07 09:28:02;;;;;;;;;;;16.10;99.90;;;;;;5105920;28;20283;-75
2021/10/07 09:30:29;;;;;;;;;;;16.10;99.90;;;;;;5109860;28;19973;-75
2021/10/07 09:33:00;;;;;;;;;;;15.90;99.90;;;;;;5112873;28;20018;-75
2021/10/07 09:35:28;;;;;;;;;;;15.90;99.90;;;;;;5097368;28;20402;-75
2021/10/07 09:37:57;;;;;;;;;;;16.10;99.90;;;;;;5101759;27;19924;-75
2021/10/07 09:40:25;;;;;;;;;;;16.20;99.90;;;;;;5104318;27;19959;-76
2021/10/07 09:42:53;;;;;;;;;;;16.20;99.90;;;;;;5093612;27;20363;-75
2021/10/07 09:45:21;;;;;;;;;;;16.10;99.90;;;;;;5102844;28;19958;-76
2021/10/07 09:47:49;;;;;;;;;;;16.10;99.90;;;;;;5096398;28;20335;-75
2021/10/07 09:50:17;;;;;;;;;;;15.90;99.90;;;;;;5111981;27;20412;-75
2021/10/07 09:52:45;;;;;;;;;;;16.00;99.90;;;;;;5113678;27;19976;-76
2021/10/07 09:55:14;;;;;;;;;;;16.30;99.90;;;;;;5109866;27;20292;-74
2021/10/07 09:57:51;;;;;;;;;;;16.60;99.90;;;;;;5109327;28;19963;-75
2021/10/07 10:00:18;;;;;;;;;;;16.90;99.90;;;;;;5113472;28;20006;-76
2021/10/07 10:02:45;;;;;;;;;;;17.00;99.90;;;;;;5095019;28;20381;-75
2021/10/07 10:05:13;;;;;;;;;;;17.20;99.90;;;;;;5105033;28;20007;-76
2021/10/07 10:07:40;;;;;;;;;;;17.20;99.90;;;;;;5115530;28;19927;-76
2021/10/07 10:10:07;;;;;;;;;;;17.20;99.90;;;;;;5108725;28;20020;-76
2021/10/07 10:12:35;;;;;;;;;;;17.10;99.90;;;;;;5103451;28;19928;-76
2021/10/07 10:15:02;;;;;;;;;;;17.00;99.90;;;;;;5110796;28;20379;-76
2021/10/07 10:17:30;;;;;;;;;;;16.90;99.90;;;;;;5108355;27;20060;-76
2021/10/07 10:19:57;;;;;;;;;;;16.70;99.90;;;;;;5101451;27;19947;-76
2021/10/07 10:22:25;;;;;;;;;;;16.70;99.90;;;;;;5113101;28;19963;-76
2021/10/07 10:24:52;;;;;;;;;;;16.80;99.90;;;;;;5106697;27;20054;-76
2021/10/07 10:27:19;;;;;;;;;;;17.00;99.90;;;;;;5112385;27;19932;-76
2021/10/07 10:29:47;;;;;;;;;;;17.10;99.90;;;;;;5099651;28;19924;-76
2021/10/07 10:32:14;;;;;;;;;;;16.40;99.90;;;;;;5104637;27;19967;-76
2021/10/07 10:34:41;;;;;;;;;;;16.40;99.90;;;;;;5101832;27;19924;-76
2021/10/07 10:37:09;;;;;;;;;;;16.60;99.90;;;;;;5118621;27;20010;-77
2021/10/07 10:39:37;;;;;;;;;;;16.80;99.90;;;;;;5110240;27;20450;-76
2021/10/07 10:42:05;;;;;;;;;;;16.90;99.90;;;;;;5113150;28;19931;-77
2021/10/07 10:44:42;;;;;;;;;;;16.90;99.90;;;;;;5103671;27;19930;-76
2021/10/07 10:47:17;;;;;;;;;;;16.70;99.90;;;;;;5106703;27;19927;-75
2021/10/07 10:49:58;;;;;;;;;;;16.80;99.90;;;;;;5109630;27;20031;-76
2021/10/07 10:52:26;;;;;;;;;;;16.80;99.90;;;;;;5107690;27;20014;-76
2021/10/07 10:54:55;;;;;;;;;;;17.20;99.90;;;;;;5110846;27;20022;-76
2021/10/07 10:57:27;;;;;;;;;;;17.20;99.90;;;;;;5103058;28;19930;-77
2021/10/07 11:00:05;;;;;;;;;;;17.20;99.90;;;;;;5112262;27;19949;-75
2021/10/07 11:02:33;;;;;;;;;;;17.00;99.90;;;;;;5109541;27;19928;-76
2021/10/07 11:05:10;;;;;;;;;;;16.70;99.90;;;;;;5108396;27;19974;-76
2021/10/07 11:07:36;;;;;;;;;;;16.70;99.90;;;;;;5102171;27;19924;-76
2021/10/07 11:10:07;;;;;;;;;;;17.10;99.90;;;;;;5101928;27;19927;-75
2021/10/07 11:12:43;;;;;;;;;;;17.50;99.90;;;;;;5093819;28;20015;-76
2021/10/07 11:15:10;;;;;;;;;;;17.50;99.90;;;;;;5093278;28;20243;-77
2021/10/07 11:17:39;;;;;;;;;;;17.60;99.90;;;;;;5117400;27;20282;-77
2021/10/07 11:20:06;;;;;;;;;;;17.70;99.90;;;;;;5109190;27;19923;-77
2021/10/07 11:22:33;;;;;;;;;;;17.90;99.90;;;;;;5131123;27;20079;-77
2021/10/07 11:24:59;;;;;;;;;;;18.10;99.90;;;;;;5111498;27;19988;-77
2021/10/07 11:27:33;;;;;;;;;;;18.40;99.90;;;;;;5101505;28;19960;-77
2021/10/07 11:30:00;;;;;;;;;;;18.60;99.90;;;;;;5099516;27;20415;-77
2021/10/07 11:32:27;;;;;;;;;;;18.70;99.90;;;;;;5110920;28;20031;-75
2021/10/07 11:35:05;;;;;;;;;;;18.50;98.60;;;;;;5109356;27;20022;-75
2021/10/07 11:37:51;;;;;;;;;;;18.40;99.00;;;;;;5100452;28;20023;-75
2021/10/07 11:40:19;;;;;;;;;;;18.20;99.00;;;;;;5103251;27;19930;-77
2021/10/07 11:42:46;;;;;;;;;;;17.90;99.20;;;;;;5107774;27;19928;-77
2021/10/07 11:45:20;;;;;;;;;;;17.80;99.60;;;;;;5104640;27;19949;-75
2021/10/07 11:47:47;;;;;;;;;;;18.20;99.80;;;;;;5107781;27;19935;-75
2021/10/07 11:50:15;;;;;;;;;;;18.60;98.60;;;;;;5098299;27;20366;-75
2021/10/07 11:52:42;;;;;;;;;;;18.70;98.70;;;;;;5112232;28;19924;-75
2021/10/07 11:55:09;;;;;;;;;;;18.60;98.40;;;;;;5112840;27;19930;-76
2021/10/07 11:57:35;;;;;;;;;;;18.30;98.40;;;;;;5105887;27;20026;-75
2021/10/07 12:00:02;;;;;;;;;;;18.30;99.10;;;;;;5108355;27;20283;-74
2021/10/07 12:02:30;;;;;;;;;;;18.10;99.20;;;;;;5109103;28;19967;-74
2021/10/07 12:05:11;;;;;;;;;;;17.80;99.50;;;;;;5106721;27;19924;-74
2021/10/07 12:07:39;;;;;;;;;;;17.60;99.60;;;;;;5118234;27;20014;-75
2021/10/07 12:10:06;;;;;;;;;;;17.80;99.90;;;;;;5104131;27;20007;-74
2021/10/07 12:12:33;;;;;;;;;;;17.90;99.60;;;;;;5103162;28;19931;-74
2021/10/07 12:15:00;;;;;;;;;;;17.90;99.90;;;;;;5108889;27;19932;-74
2021/10/07 12:17:26;;;;;;;;;;;17.90;99.90;;;;;;5096996;28;20402;-73
2021/10/07 12:19:53;;;;;;;;;;;17.80;99.70;;;;;;5098397;27;19954;-74
2021/10/07 12:22:26;;;;;;;;;;;17.70;99.90;;;;;;5098119;27;19924;-74
2021/10/07 12:25:00;;;;;;;;;;;17.70;99.90;;;;;;5110293;27;19924;-76
2021/10/07 12:27:32;;;;;;;;;;;17.80;99.90;;;;;;5110204;28;20293;-76
2021/10/07 12:30:04;;;;;;;;;;;17.90;99.90;;;;;;5106782;27;19953;-76
2021/10/07 12:32:31;;;;;;;;;;;18.10;99.70;;;;;;5097405;27;19924;-76
2021/10/07 12:34:57;;;;;;;;;;;18.30;99.70;;;;;;5100088;27;20447;-75
2021/10/07 12:37:28;;;;;;;;;;;18.40;99.40;;;;;;5097708;28;19971;-75
2021/10/07 12:39:56;;;;;;;;;;;18.60;99.70;;;;;;5099275;28;20022;-76
2021/10/07 12:42:25;;;;;;;;;;;19.00;98.70;;;;;;5105410;28;19924;-76
2021/10/07 12:44:54;;;;;;;;;;;19.30;98.50;;;;;;5108152;28;20745;-76
2021/10/07 12:47:22;;;;;;;;;;;19.30;98.30;;;;;;5108490;28;20450;-76
2021/10/07 12:49:49;;;;;;;;;;;19.20;98.20;;;;;;5101265;27;19990;-76
2021/10/07 12:52:18;;;;;;;;;;;19.00;98.00;;;;;;5107390;27;20011;-76
2021/10/07 12:54:51;;;;;;;;;;;19.00;97.80;;;;;;5108843;28;19930;-75
2021/10/07 12:57:36;;;;;;;;;;;19.00;97.90;;;;;;5109494;27;20007;-76
2021/10/07 13:00:05;;;;;;;;;;;19.10;97.60;;;;;;5097543;27;20018;-75
2021/10/07 13:02:33;;;;;;;;;;;18.90;98.40;;;;;;5095301;27;19989;-75
2021/10/07 13:05:11;;;;;;;;;;;18.70;98.00;;;;;;5100549;27;19963;-76
2021/10/07 13:07:38;;;;;;;;;;;18.90;98.40;;;;;;5106908;27;19923;-75
2021/10/07 13:10:05;;;;;;;;;;;18.90;98.30;;;;;;5107211;28;20007;-75
2021/10/07 13:12:33;;;;;;;;;;;18.80;98.30;;;;;;5098151;27;20412;-75
2021/10/07 13:15:00;;;;;;;;;;;18.80;97.70;;;;;;5107418;28;20015;-76
2021/10/07 13:17:28;;;;;;;;;;;18.80;98.00;;;;;;5099348;28;19931;-76
2021/10/07 13:19:54;;;;;;;;;;;18.90;97.40;;;;;;5097222;28;19924;-76
2021/10/07 13:22:21;;;;;;;;;;;18.80;97.20;;;;;;5093629;28;20015;-76
2021/10/07 13:24:48;;;;;;;;;;;18.90;97.70;;;;;;5095523;28;20038;-75
2021/10/07 13:27:20;;;;;;;;;;;18.70;96.90;;;;;;5099281;28;19974;-76
2021/10/07 13:29:47;;;;;;;;;;;18.70;96.60;;;;;;5092732;28;20063;-76
2021/10/07 13:32:14;;;;;;;;;;;18.70;97.40;;;;;;5097465;28;19993;-77
2021/10/07 13:34:42;;;;;;;;;;;18.10;98.10;;;;;;5095364;28;19931;-76
2021/10/07 13:37:08;;;;;;;;;;;17.60;99.40;;;;;;5100021;28;19923;-75
2021/10/07 13:39:35;;;;;;;;;;;17.30;98.80;;;;;;5106360;28;19923;-76
2021/10/07 13:42:02;;;;;;;;;;;17.20;99.70;;;;;;5110681;28;19935;-76
2021/10/07 13:44:28;;;;;;;;;;;17.60;99.90;;;;;;5103223;28;20011;-76
2021/10/07 13:46:55;;;;;;;;;;;17.60;98.90;;;;;;5093078;28;20007;-76
2021/10/07 13:49:22;;;;;;;;;;;17.60;98.40;;;;;;5104215;28;19930;-76
2021/10/07 13:51:50;;;;;;;;;;;17.90;98.50;;;;;;5112712;28;20019;-76
2021/10/07 13:54:16;;;;;;;;;;;17.90;97.80;;;;;;5106816;28;19927;-75
2021/10/07 13:56:43;;;;;;;;;;;18.00;97.70;;;;;;5100691;28;20378;-76
2021/10/07 13:59:10;;;;;;;;;;;18.00;97.50;;;;;;5097883;28;21434;-77
2021/10/07 14:01:37;;;;;;;;;;;17.90;97.80;;;;;;5126387;28;19967;-76
2021/10/07 14:04:04;;;;;;;;;;;17.90;98.00;;;;;;5109241;28;20007;-77
2021/10/07 14:06:31;;;;;;;;;;;17.80;98.00;;;;;;5104035;28;20014;-77
2021/10/07 14:08:59;;;;;;;;;;;17.80;98.00;;;;;;5101969;28;19980;-77
2021/10/07 14:11:26;;;;;;;;;;;17.80;98.10;;;;;;5098383;28;19924;-77
2021/10/07 14:13:53;;;;;;;;;;;17.70;98.30;;;;;;5099205;28;19924;-77
2021/10/07 14:16:19;;;;;;;;;;;17.70;98.50;;;;;;5091884;28;20004;-76
2021/10/07 14:18:48;;;;;;;;;;;17.60;99.00;;;;;;5103126;28;19924;-76
2021/10/07 14:21:15;;;;;;;;;;;17.60;98.90;;;;;;5092534;28;20030;-77
2021/10/07 14:23:41;;;;;;;;;;;17.60;99.10;;;;;;5091568;28;19935;-77
2021/10/07 14:26:10;;;;;;;;;;;17.60;98.80;;;;;;5095160;28;19924;-77
2021/10/07 14:28:37;;;;;;;;;;;17.70;98.80;;;;;;5095093;28;19924;-76
2021/10/07 14:31:04;;;;;;;;;;;17.70;98.70;;;;;;5104208;28;19923;-76